• Join FlightAware (Why Join?)
  • Login
  • US Flag 
09:33PM EDT


 

Airport Tracker/Info


-or-


 

Live Flight TrackerFlight Track Log ✈ AWE3263 ✈ 18-Apr-2014 ✈ KMHT - KPHL

Flight Track Log - Related Links

Times and Time Zones

All times are in EDT time to prevent confusion due to time zone crossing. See the AWE3263 flight status page for this flight to view local times or setup timezone preferences in your user account.

Time Position Orientation Groundspeed Altitude Reporting Facility
EDT Latitude Longitude Course Direction KTS MPH feet Rate Location/Type
11:44AM 42.9167 -71.4167 270° West 135 155 1,200  Level KA90
11:44AM 42.9000 -71.4333 216° Southwest 159 183 2,100 1,680 Climbing KA90
11:45AM 42.9000 -71.5000 270° West 246 283 3,800 1,980 Climbing KA90
11:46AM 42.9333 -71.7774 270° West  Level FlightAware Approximate
11:46AM 42.9500 -71.5500 324° Northwest 288 331 5,900  Level KA90
11:47AM 42.9480 -71.8901 285° West  Level FlightAware Approximate
11:47AM 42.9939 -71.5700 342° North 277 319 7,000  Level Boston Center
11:48AM 42.9500 -72.0052 270° West  Level FlightAware Approximate
11:48AM 43.0661 -71.6111 337° Northwest 279 321 7,600  Level Boston Center
11:49AM 42.9501 -72.1207 270° West  Level FlightAware Approximate
11:49AM 43.1381 -71.6522 337° Northwest 279 321 9,700  Level Boston Center
11:50AM 43.1925 -71.7433 309° West 295 339 10,000 1,200 Climbing Boston Center
11:51AM 43.2042 -71.8517 278° West 297 342 12,200 2,160 Climbing Boston Center
11:52AM 43.1892 -71.9636 260° West 299 344 14,500 2,160 Climbing Boston Center
11:53AM 43.1719 -72.0889 259° West 307 353 16,700 1,740 Climbing Boston Center
11:54AM 43.1556 -72.2064 259° West 311 358 18,100 1,440 Climbing Boston Center
11:55AM 43.1411 -72.3086 259° West 319 367 19,700 1,680 Climbing Boston Center
11:56AM 43.1214 -72.4517 259° West 318 366 21,600 1,620 Climbing Boston Center
11:57AM 43.1042 -72.5758 259° West 330 380 23,100 1,320 Climbing Boston Center
11:58AM 43.0878 -72.6944 259° West 331 381 24,400 1,260 Climbing Boston Center
11:59AM 43.0700 -72.8211 259° West 334 384 25,700 480 Climbing Boston Center
12:01PM 43.0333 -73.0744 259° West 339 390 26,000 60 Climbing Boston Center
12:02PM 43.0111 -73.2222 258° West 338 389 26,000  Level Boston Center
12:03PM 42.9908 -73.3464 257° West 338 389 26,000  Level Boston Center
12:04PM 42.9361 -73.4536 235° Southwest 335 386 26,000  Level Boston Center
12:05PM 42.8825 -73.5550 234° Southwest 336 387 26,000  Level Boston Center
12:06PM 42.8300 -73.6500 233° Southwest 334 384 26,000  Level Boston Center
12:07PM 42.7758 -73.7508 234° Southwest 334 384 26,000  Level Boston Center
12:08PM 42.7225 -73.8539 235° Southwest 334 384 26,000  Level Boston Center
12:09PM 42.6628 -73.9794 237° Southwest 334 384 26,000  Level Boston Center
12:10PM 42.6111 -74.0839 236° Southwest 334 384 26,000  Level Boston Center
12:11PM 42.5594 -74.1883 236° Southwest 334 384 26,000  Level Boston Center
12:12PM 42.5081 -74.2917 236° Southwest 334 384 26,000  Level Boston Center
12:13PM 42.4583 -74.3953 237° Southwest 331 381 26,000  Level Boston Center
12:14PM 42.4022 -74.5086 236° Southwest 331 381 26,000  Level Boston Center
12:15PM 42.3486 -74.6092 234° Southwest 331 381 26,000  Level Boston Center
12:16PM 42.2836 -74.6986 226° Southwest 331 381 26,000 -180 Level Boston Center
12:17PM 42.2192 -74.7867 225° Southwest 331 381 25,700 -1,020 Descending Boston Center
12:18PM 42.1544 -74.8750 225° Southwest 331 381 24,000 -1,740 Descending Boston Center
12:19PM 42.0894 -74.9650 226° Southwest 331 381 22,200 -1,920 Descending Boston Center
12:20PM 42.0153 -75.0647 225° Southwest 328 377 20,100 -1,620 Descending Boston Center
12:22PM 41.9528 -75.1458 224° Southwest 315 362 19,000 -540 Descending Boston Center
12:23PM 41.8761 -75.2053 210° Southwest 315 362 19,000  Level Boston Center
12:23PM 41.8286 -75.2469 213° Southwest 322 371 19,000 -180 Level New York Center
12:24PM 41.7536 -75.3058 210° Southwest 322 371 18,800 -780 Descending New York Center
12:25PM 41.6847 -75.3622 211° Southwest 322 371 17,500 -1,740 Descending New York Center
12:26PM 41.6139 -75.4183 211° Southwest 322 371 15,400 -1,980 Descending New York Center
12:27PM 41.5342 -75.4847 212° Southwest 317 365 13,600 -1,680 Descending New York Center
12:28PM 41.4611 -75.5406 210° Southwest 312 359 12,100 -900 Descending New York Center
12:29PM 41.3986 -75.5914 211° Southwest 306 352 11,900 -120 Descending New York Center
12:30PM 41.3211 -75.6522 211° Southwest 306 352 11,900  Level New York Center
12:31PM 41.2550 -75.6889 203° Southwest 306 352 11,900 -360 Level New York Center
12:32PM 41.1656 -75.6878 179° South 294 338 11,200 -1,020 Descending New York Center
12:33PM 41.0822 -75.6872 180° South 305 351 9,900 -600 Descending New York Center
12:34PM 40.9989 -75.6894 181° South 305 351 10,000  Climbing New York Center
12:35PM 40.9156 -75.6889 180° South 310 357 10,000  Level New York Center
12:36PM 40.8394 -75.6617 165° South 304 350 10,000  Level New York Center
12:37PM 40.7542 -75.6089 155° Southeast 316 364 10,000  Level New York Center
12:38PM 40.6728 -75.5622 156° South 321 369 10,000  Level New York Center
12:39PM 40.5911 -75.5153 156° South 321 369 10,000  Level New York Center
12:40PM 40.5139 -75.4692 156° South 321 369 10,000 -180 Level New York Center
12:41PM 40.4364 -75.4256 157° South 305 351 9,700 -540 Descending New York Center
12:42PM 40.3631 -75.3825 156° South 298 343 9,000 -720 Descending New York Center
12:43PM 40.2897 -75.3397 156° South 288 331 8,300 -540 Descending New York Center
12:44PM 40.2269 -75.3489 186° South 262 302 8,000 -180 Descending New York Center
12:45PM 40.1567 -75.3878 203° Southwest 267 307 8,000  Level New York Center
12:46PM 40.0819 -75.4289 203° Southwest 272 313 8,000  Level New York Center
12:47PM 40.0222 -75.4656 205° Southwest 264 304 8,000 -720 Level New York Center
12:48PM 39.9494 -75.5094 205° Southwest 264 304 6,600 -1,680 Descending New York Center
12:49PM 39.8919 -75.5436 205° Southwest 264 304 4,700 -1,920 Descending New York Center
12:50PM 39.8333 -75.5833 207° Southwest 250 288 3,000 -900 Descending Philadelphia TRACON
12:51PM 39.8167 -75.5167 108° East 183 211 3,000 -60 Level Philadelphia TRACON
12:52PM 39.8333 -75.4500 72° East 180 207 2,900 -600 Descending Philadelphia TRACON
12:53PM 39.8333 -75.3833 90° East 179 206 1,900 -960 Descending Philadelphia TRACON
12:54PM 39.8500 -75.3333 67° East 148 170 900 -960 Descending Philadelphia TRACON
12:56PM 39.8667 -75.2333 105° East  Level FlightAware Approximate
01:03PM 39.8722 -75.2409 105° East  Level Estimated